Time;durP1;ratioP1;P1;durP2;ratioP2;P2;SDS_P1;SDS_P2;PMS_P1;PMS_P2;Temp;Humidity;BMP_temperature;BMP_pressure;BME280_temperature;BME280_humidity;BME280_pressure;Samples;Min_cycle;Max_cycle;Signal;HPM_P1;HPM_P2
2021/12/09 00:01:14;;;;;;;1.80;1.65;;;5.20;74.20;;;;;;5074456;28;20056;-73
2021/12/09 00:03:40;;;;;;;1.60;1.40;;;5.20;74.20;;;;;;5054990;28;20056;-72
2021/12/09 00:06:09;;;;;;;3.70;1.70;;;5.20;74.10;;;;;;5073484;28;20021;-73
2021/12/09 00:08:37;;;;;;;2.72;1.27;;;5.20;74.00;;;;;;5072497;28;20468;-73
2021/12/09 00:11:07;;;;;;;4.70;1.60;;;5.20;74.00;;;;;;5055425;28;20115;-73
2021/12/09 00:13:33;;;;;;;2.80;1.40;;;5.20;74.10;;;;;;5072223;28;20056;-73
2021/12/09 00:15:59;;;;;;;2.08;1.27;;;5.20;74.10;;;;;;5068796;28;20028;-73
2021/12/09 00:18:25;;;;;;;2.33;1.30;;;5.20;74.10;;;;;;5061641;28;20035;-73
2021/12/09 00:20:52;;;;;;;3.63;1.30;;;5.20;74.00;;;;;;5073282;28;20042;-73
2021/12/09 00:23:18;;;;;;;1.40;1.30;;;5.20;73.90;;;;;;5072787;28;20070;-73
2021/12/09 00:25:43;;;;;;;1.85;1.33;;;5.20;74.00;;;;;;5073632;28;20028;-73
2021/12/09 00:28:10;;;;;;;3.45;1.50;;;5.20;74.10;;;;;;5073483;28;20020;-73
2021/12/09 00:30:36;;;;;;;1.33;1.15;;;5.10;73.90;;;;;;5055308;28;20037;-74
2021/12/09 00:33:05;;;;;;;1.27;1.17;;;5.10;73.90;;;;;;5072289;28;20020;-74
2021/12/09 00:35:42;;;;;;;1.17;0.90;;;5.10;74.00;;;;;;5072299;28;20039;-74
2021/12/09 00:38:09;;;;;;;3.35;1.30;;;5.10;74.10;;;;;;5071994;28;20016;-74
2021/12/09 00:40:36;;;;;;;1.67;1.25;;;5.10;74.10;;;;;;5072765;28;20033;-74
2021/12/09 00:43:02;;;;;;;1.60;1.13;;;5.10;74.20;;;;;;5072214;28;20028;-74
2021/12/09 00:45:28;;;;;;;3.85;1.27;;;5.20;74.30;;;;;;5070781;28;20031;-74
2021/12/09 00:47:54;;;;;;;3.10;1.27;;;5.10;74.20;;;;;;5071938;28;20382;-73
2021/12/09 00:50:21;;;;;;;4.85;1.30;;;5.20;74.30;;;;;;5071965;28;20074;-73
2021/12/09 00:52:47;;;;;;;1.50;1.20;;;5.20;74.30;;;;;;5072218;28;20028;-73
2021/12/09 00:55:13;;;;;;;3.50;1.60;;;5.20;74.20;;;;;;5073391;28;20123;-73
2021/12/09 00:57:41;;;;;;;3.08;1.23;;;5.20;74.20;;;;;;5071292;28;20045;-73
2021/12/09 01:00:15;;;;;;;1.75;1.10;;;5.20;74.30;;;;;;5072640;28;20036;-74
2021/12/09 01:02:41;;;;;;;;;;;5.20;74.30;;;;;;5072378;28;20059;-74
2021/12/09 01:05:09;;;;;;;1.58;1.40;;;5.30;74.50;;;;;;5072724;28;19952;-74
2021/12/09 01:07:36;;;;;;;1.20;1.10;;;5.30;74.00;;;;;;5069929;28;20043;-74
2021/12/09 01:10:05;;;;;;;4.72;1.40;;;5.20;74.00;;;;;;5072090;28;20112;-73
2021/12/09 01:12:30;;;;;;;3.08;1.50;;;5.20;74.10;;;;;;5070914;28;20393;-74
2021/12/09 01:14:56;;;;;;;4.20;1.25;;;5.20;74.00;;;;;;5072784;28;20024;-74
2021/12/09 01:17:22;;;;;;;2.10;1.38;;;5.20;74.00;;;;;;5086396;28;20028;-74
2021/12/09 01:19:48;;;;;;;2.83;1.77;;;5.20;74.10;;;;;;5054725;28;20089;-75
2021/12/09 01:22:14;;;;;;;1.42;1.27;;;5.20;74.20;;;;;;5053854;28;20036;-74
2021/12/09 01:24:39;;;;;;;1.73;1.50;;;5.20;74.20;;;;;;5074399;28;20525;-74
2021/12/09 01:27:05;;;;;;;2.17;1.65;;;5.20;74.20;;;;;;5073208;28;20024;-74
2021/12/09 01:29:41;;;;;;;3.35;2.20;;;5.10;74.20;;;;;;5069646;28;20635;-74
2021/12/09 01:32:08;;;;;;;2.15;1.95;;;5.20;74.30;;;;;;5070444;28;20048;-74
2021/12/09 01:34:36;;;;;;;2.80;1.95;;;5.20;74.20;;;;;;5072425;28;20043;-74
2021/12/09 01:37:04;;;;;;;2.58;2.13;;;5.20;74.30;;;;;;5070765;28;20020;-74
2021/12/09 01:39:31;;;;;;;2.10;1.90;;;5.20;74.40;;;;;;5071425;28;20025;-74
2021/12/09 01:41:58;;;;;;;3.35;1.85;;;5.20;74.30;;;;;;5071834;28;20040;-74
2021/12/09 01:44:25;;;;;;;5.43;2.20;;;5.20;74.40;;;;;;5052551;28;20017;-74
2021/12/09 01:46:52;;;;;;;3.72;2.15;;;5.10;74.40;;;;;;5066152;28;20028;-74
2021/12/09 01:49:18;;;;;;;6.25;2.00;;;5.10;74.40;;;;;;5054549;28;20024;-74
2021/12/09 01:51:46;;;;;;;3.65;1.90;;;5.10;74.50;;;;;;5071298;28;20106;-74
2021/12/09 01:54:13;;;;;;;2.55;1.80;;;5.10;74.50;;;;;;5056610;28;20082;-74
2021/12/09 01:56:39;;;;;;;4.78;3.05;;;5.10;74.50;;;;;;5053475;28;20485;-74
2021/12/09 01:59:06;;;;;;;3.95;2.45;;;5.10;74.40;;;;;;5072384;28;20032;-74
2021/12/09 02:01:34;;;;;;;3.10;2.22;;;5.10;74.40;;;;;;5054839;28;20040;-74
2021/12/09 02:04:01;;;;;;;3.35;1.88;;;5.10;74.50;;;;;;5061287;28;20522;-74
2021/12/09 02:06:28;;;;;;;2.72;1.90;;;5.10;74.50;;;;;;5070204;28;20029;-74
2021/12/09 02:08:54;;;;;;;5.68;1.73;;;5.10;74.60;;;;;;5053873;28;20060;-74
2021/12/09 02:11:20;;;;;;;1.95;1.30;;;5.10;74.70;;;;;;5070645;28;20461;-74
2021/12/09 02:13:50;;;;;;;1.40;1.30;;;5.10;74.70;;;;;;5070510;28;20056;-74
2021/12/09 02:16:17;;;;;;;1.30;1.20;;;5.10;74.70;;;;;;5052969;28;20040;-74
2021/12/09 02:18:43;;;;;;;1.63;1.40;;;5.10;74.60;;;;;;5067483;28;20020;-74
2021/12/09 02:21:12;;;;;;;1.48;1.38;;;5.10;74.60;;;;;;5068340;28;20043;-74
2021/12/09 02:23:43;;;;;;;1.40;1.30;;;5.10;74.70;;;;;;5056729;28;20021;-74
2021/12/09 02:26:08;;;;;;;1.67;1.50;;;5.10;74.70;;;;;;5070774;28;20041;-74
2021/12/09 02:28:34;;;;;;;2.08;1.60;;;5.10;74.70;;;;;;5073020;28;20648;-74
2021/12/09 02:31:00;;;;;;;1.90;1.63;;;5.10;74.80;;;;;;5075728;28;20047;-74
2021/12/09 02:33:26;;;;;;;2.00;1.50;;;5.10;74.70;;;;;;5075739;28;20024;-75
2021/12/09 02:35:51;;;;;;;2.22;1.50;;;5.10;74.70;;;;;;5058728;28;20384;-74
2021/12/09 02:38:17;;;;;;;1.30;1.20;;;5.10;74.70;;;;;;5073695;28;20075;-74
2021/12/09 02:40:43;;;;;;;2.63;1.45;;;5.10;74.70;;;;;;5076176;28;20029;-74
2021/12/09 02:43:09;;;;;;;1.73;1.48;;;5.10;74.70;;;;;;5075749;28;20031;-74
2021/12/09 02:45:40;;;;;;;2.50;1.55;;;5.10;74.50;;;;;;5073114;28;20074;-75
2021/12/09 02:48:05;;;;;;;1.45;1.35;;;5.10;74.70;;;;;;5075657;28;20408;-75
2021/12/09 02:50:31;;;;;;;1.65;1.50;;;5.10;74.70;;;;;;5067035;28;20028;-74
2021/12/09 02:52:57;;;;;;;2.22;1.40;;;5.10;74.70;;;;;;5062499;28;20032;-73
2021/12/09 02:55:23;;;;;;;1.70;1.60;;;5.00;74.60;;;;;;5078530;28;20028;-74
2021/12/09 02:57:52;;;;;;;1.85;1.70;;;5.00;74.60;;;;;;5075151;28;20052;-74
2021/12/09 03:00:20;;;;;;;1.70;1.38;;;5.00;74.80;;;;;;5073577;28;20021;-74
2021/12/09 03:02:46;;;;;;;1.60;1.50;;;5.00;74.80;;;;;;5075386;28;20021;-74
2021/12/09 03:05:12;;;;;;;1.45;1.35;;;5.00;74.80;;;;;;5074049;28;20491;-74
2021/12/09 03:07:41;;;;;;;1.55;1.42;;;5.00;74.90;;;;;;5074162;28;20048;-74
2021/12/09 03:10:17;;;;;;;1.90;1.70;;;5.00;74.80;;;;;;5072812;28;20107;-74
2021/12/09 03:12:43;;;;;;;1.98;1.80;;;5.00;74.80;;;;;;5060657;28;20032;-74
2021/12/09 03:15:10;;;;;;;4.88;2.40;;;5.00;74.80;;;;;;5071880;28;20147;-74
2021/12/09 03:17:40;;;;;;;4.35;2.92;;;5.00;74.90;;;;;;5067021;28;20120;-74
2021/12/09 03:20:09;;;;;;;3.25;2.40;;;5.00;74.90;;;;;;5073841;28;20020;-74
2021/12/09 03:22:35;;;;;;;3.30;2.45;;;5.00;74.90;;;;;;5067061;28;20127;-75
2021/12/09 03:25:03;;;;;;;3.78;2.28;;;5.10;74.90;;;;;;5074498;28;20056;-74
2021/12/09 03:27:28;;;;;;;3.97;2.50;;;5.10;74.90;;;;;;5052642;28;20033;-74
2021/12/09 03:29:54;;;;;;;5.30;2.22;;;5.00;74.90;;;;;;5056854;28;20465;-75
2021/12/09 03:32:20;;;;;;;2.55;2.20;;;5.00;74.90;;;;;;5072839;28;20036;-74
2021/12/09 03:34:46;;;;;;;2.53;2.03;;;5.10;75.10;;;;;;5074325;28;20075;-75
2021/12/09 03:37:16;;;;;;;4.72;2.20;;;5.10;75.00;;;;;;5073774;28;20035;-75
2021/12/09 03:39:42;;;;;;;1.90;1.80;;;5.10;75.00;;;;;;5074044;28;20476;-75
2021/12/09 03:42:12;;;;;;;1.90;1.70;;;5.10;74.90;;;;;;5074007;28;20035;-74
2021/12/09 03:44:39;;;;;;;1.67;1.58;;;5.10;74.90;;;;;;5074835;28;20028;-75
2021/12/09 03:47:08;;;;;;;1.90;1.80;;;5.10;74.90;;;;;;5074689;28;20029;-74
2021/12/09 03:49:34;;;;;;;2.80;1.90;;;5.10;75.00;;;;;;5073279;28;20052;-74
2021/12/09 03:52:00;;;;;;;2.00;1.80;;;5.10;74.90;;;;;;5055391;28;20036;-75
2021/12/09 03:54:28;;;;;;;2.33;1.85;;;5.10;74.90;;;;;;5074085;28;20016;-75
2021/12/09 03:56:54;;;;;;;2.13;1.92;;;5.10;74.90;;;;;;5072685;28;20040;-75
2021/12/09 03:59:20;;;;;;;2.13;1.95;;;5.10;74.90;;;;;;5055631;28;20380;-75
2021/12/09 04:01:46;;;;;;;4.82;2.40;;;5.10;75.50;;;;;;5073923;28;20043;-75
2021/12/09 04:04:13;;;;;;;2.30;2.10;;;5.10;74.90;;;;;;5072904;28;20035;-75
2021/12/09 04:06:40;;;;;;;2.30;2.10;;;5.10;74.90;;;;;;5074102;28;20029;-75
2021/12/09 04:09:08;;;;;;;3.75;3.22;;;5.10;74.90;;;;;;5073206;28;20021;-75
2021/12/09 04:11:34;;;;;;;2.45;2.25;;;5.10;74.90;;;;;;5073150;28;20488;-75
2021/12/09 04:14:00;;;;;;;2.42;2.22;;;5.10;74.90;;;;;;5072931;28;20062;-75
2021/12/09 04:16:26;;;;;;;3.03;2.42;;;5.10;74.90;;;;;;5073517;28;20117;-75
2021/12/09 04:18:51;;;;;;;4.20;2.40;;;5.20;74.90;;;;;;5072963;28;20052;-74
2021/12/09 04:21:17;;;;;;;2.60;2.40;;;5.20;75.00;;;;;;5073370;28;20510;-75
2021/12/09 04:23:43;;;;;;;7.78;4.53;;;5.20;74.90;;;;;;5064554;28;20488;-75
2021/12/09 04:26:09;;;;;;;3.92;3.08;;;5.20;74.90;;;;;;5068618;28;20094;-75
2021/12/09 04:28:36;;;;;;;5.38;3.47;;;5.20;74.80;;;;;;5072120;28;20420;-75
2021/12/09 04:31:02;;;;;;;4.18;3.60;;;5.20;74.90;;;;;;5073734;28;20077;-75
2021/12/09 04:33:29;;;;;;;3.25;2.95;;;5.20;74.90;;;;;;5071917;28;20095;-75
2021/12/09 04:35:56;;;;;;;3.95;2.97;;;5.20;74.90;;;;;;5055012;28;20038;-75
2021/12/09 04:38:21;;;;;;;3.78;3.08;;;5.20;74.80;;;;;;5072449;28;20103;-75
2021/12/09 04:40:47;;;;;;;3.72;3.10;;;5.20;74.80;;;;;;5073075;28;20099;-75
2021/12/09 04:43:13;;;;;;;4.90;3.10;;;5.20;74.90;;;;;;5072287;28;20028;-75
2021/12/09 04:45:40;;;;;;;3.28;2.97;;;5.20;74.80;;;;;;5072997;28;20039;-75
2021/12/09 04:48:07;;;;;;;3.03;2.80;;;5.20;74.80;;;;;;5072291;28;20103;-75
2021/12/09 04:50:34;;;;;;;5.70;2.92;;;5.20;74.80;;;;;;5072838;28;20036;-75
2021/12/09 04:53:00;;;;;;;3.25;2.95;;;5.10;74.70;;;;;;5071087;28;20052;-75
2021/12/09 04:55:26;;;;;;;4.82;2.72;;;5.10;74.80;;;;;;5055643;28;20102;-75
2021/12/09 04:57:51;;;;;;;3.30;2.72;;;5.20;74.90;;;;;;5071915;28;20052;-75
2021/12/09 05:00:21;;;;;;;3.53;2.85;;;5.10;74.90;;;;;;5072803;28;20024;-75
2021/12/09 05:03:06;;;;;;;2.90;2.60;;;5.10;74.90;;;;;;5068088;28;20024;-75
2021/12/09 05:05:35;;;;;;;;;;;5.10;74.90;;;;;;5053588;28;20028;-75
2021/12/09 05:08:02;;;;;;;2.40;2.20;;;5.20;75.10;;;;;;5045838;28;20368;-75
2021/12/09 05:10:28;;;;;;;2.03;1.90;;;5.10;74.40;;;;;;5080433;28;20032;-74
2021/12/09 05:12:53;;;;;;;1.85;1.73;;;5.10;74.50;;;;;;5072046;28;20066;-75
2021/12/09 05:15:19;;;;;;;1.90;1.80;;;5.10;74.50;;;;;;5072553;28;20074;-75
2021/12/09 05:17:44;;;;;;;2.38;2.17;;;5.00;74.60;;;;;;5053952;28;20067;-74
2021/12/09 05:20:10;;;;;;;2.38;2.20;;;5.00;74.80;;;;;;5072703;28;20469;-75
2021/12/09 05:22:36;;;;;;;1.65;1.55;;;5.00;74.80;;;;;;5070516;28;20569;-75
2021/12/09 05:25:02;;;;;;;2.00;1.80;;;5.00;75.00;;;;;;5072864;28;20480;-75
2021/12/09 05:27:29;;;;;;;2.10;1.90;;;5.00;75.00;;;;;;5072703;28;20094;-74
2021/12/09 05:30:07;;;;;;;1.60;1.50;;;5.00;74.90;;;;;;5070675;28;20017;-74
2021/12/09 05:32:33;;;;;;;1.50;1.40;;;5.10;74.90;;;;;;5071461;28;20503;-74
2021/12/09 05:34:59;;;;;;;3.20;1.67;;;5.10;74.90;;;;;;5049961;28;20116;-74
2021/12/09 05:37:26;;;;;;;2.28;1.55;;;5.00;74.80;;;;;;5061553;28;20119;-75
2021/12/09 05:39:54;;;;;;;3.05;1.92;;;5.00;74.80;;;;;;5065308;28;20036;-74
2021/12/09 05:42:22;;;;;;;1.92;1.75;;;5.00;74.80;;;;;;5072597;28;20099;-74
2021/12/09 05:44:48;;;;;;;3.13;1.88;;;5.00;74.70;;;;;;5069836;28;20381;-75
2021/12/09 05:47:14;;;;;;;1.92;1.83;;;5.00;74.70;;;;;;5072550;28;20052;-75
2021/12/09 05:49:43;;;;;;;3.60;2.10;;;5.00;74.60;;;;;;5071779;28;20059;-74
2021/12/09 05:52:10;;;;;;;3.92;2.35;;;5.10;74.90;;;;;;5054284;28;20076;-74
2021/12/09 05:54:36;;;;;;;2.90;2.40;;;5.00;74.80;;;;;;5057882;28;20061;-74
2021/12/09 05:57:03;;;;;;;4.32;3.20;;;5.10;74.80;;;;;;5054092;28;20041;-74
2021/12/09 05:59:28;;;;;;;5.43;3.33;;;5.00;74.60;;;;;;5047213;28;20071;-74
2021/12/09 06:01:54;;;;;;;6.22;3.72;;;5.00;74.70;;;;;;5071921;28;20048;-74
2021/12/09 06:04:21;;;;;;;4.78;3.50;;;5.00;74.80;;;;;;5055852;28;20082;-74
2021/12/09 06:06:48;;;;;;;8.68;3.97;;;5.00;74.80;;;;;;5076100;28;20077;-74
2021/12/09 06:09:14;;;;;;;4.85;3.75;;;5.00;75.00;;;;;;5075158;28;20028;-74
2021/12/09 06:11:42;;;;;;;4.90;3.60;;;5.00;74.90;;;;;;5076291;28;20032;-74
2021/12/09 06:14:08;;;;;;;5.53;3.80;;;5.00;75.00;;;;;;5056524;28;20029;-74
2021/12/09 06:16:35;;;;;;;5.80;3.92;;;5.00;75.00;;;;;;5057541;28;20507;-73
2021/12/09 06:19:01;;;;;;;7.68;4.30;;;5.00;75.00;;;;;;5074480;28;20382;-74
2021/12/09 06:21:28;;;;;;;9.27;5.90;;;5.10;75.10;;;;;;5058147;28;20481;-74
2021/12/09 06:23:55;;;;;;;8.82;4.43;;;5.10;75.10;;;;;;5073449;28;20021;-74
2021/12/09 06:26:21;;;;;;;5.80;4.05;;;5.10;75.10;;;;;;5068337;28;20557;-74
2021/12/09 06:28:47;;;;;;;8.52;4.45;;;5.10;75.10;;;;;;5067147;28;20032;-74
2021/12/09 06:31:14;;;;;;;6.38;4.38;;;5.10;75.10;;;;;;5051544;28;20087;-74
2021/12/09 06:33:39;;;;;;;5.40;4.13;;;5.10;75.10;;;;;;5057382;28;20048;-74
2021/12/09 06:36:05;;;;;;;10.10;4.25;;;5.20;75.10;;;;;;5074735;28;20511;-73
2021/12/09 06:38:32;;;;;;;7.75;4.80;;;5.10;75.00;;;;;;5074326;28;20043;-74
2021/12/09 06:40:58;;;;;;;5.63;4.22;;;5.20;75.00;;;;;;5056826;28;20021;-74
2021/12/09 06:43:24;;;;;;;10.82;7.20;;;5.10;75.00;;;;;;5074909;28;20544;-74
2021/12/09 06:45:53;;;;;;;7.20;4.90;;;5.20;75.00;;;;;;5074358;28;20078;-73
2021/12/09 06:48:19;;;;;;;6.82;4.32;;;5.20;75.00;;;;;;5074200;28;20381;-73
2021/12/09 06:50:45;;;;;;;8.48;5.18;;;5.20;75.00;;;;;;5074087;28;20550;-74
2021/12/09 06:53:14;;;;;;;60.55;27.10;;;5.20;75.00;;;;;;5074827;28;20036;-74
2021/12/09 06:55:40;;;;;;;18.23;9.45;;;5.20;75.00;;;;;;5074197;28;20029;-74
2021/12/09 06:58:09;;;;;;;40.78;21.17;;;5.20;75.00;;;;;;5059470;28;20499;-74
2021/12/09 07:00:40;;;;;;;14.98;9.05;;;5.20;74.90;;;;;;5079829;28;20032;-74
2021/12/09 07:03:06;;;;;;;12.20;6.50;;;5.20;74.90;;;;;;5074164;28;20028;-74
2021/12/09 07:05:32;;;;;;;8.43;6.22;;;5.20;74.90;;;;;;5058959;28;20434;-74
2021/12/09 07:07:57;;;;;;;6.10;4.90;;;5.20;75.00;;;;;;5073743;28;20024;-74
2021/12/09 07:10:23;;;;;;;8.90;5.85;;;5.20;75.60;;;;;;5075240;28;20032;-74
2021/12/09 07:12:50;;;;;;;5.72;3.90;;;5.20;74.90;;;;;;5074045;28;20141;-74
2021/12/09 07:15:17;;;;;;;6.75;4.03;;;5.20;74.80;;;;;;5073227;28;20024;-74
2021/12/09 07:17:43;;;;;;;27.13;13.32;;;5.20;74.70;;;;;;5089806;28;20024;-73
2021/12/09 07:20:13;;;;;;;27.45;14.27;;;5.30;74.80;;;;;;5074812;28;20024;-74
2021/12/09 07:22:39;;;;;;;87.63;35.22;;;5.30;74.90;;;;;;5073274;28;20033;-74
2021/12/09 07:25:05;;;;;;;41.55;19.58;;;5.30;75.00;;;;;;5075923;28;20024;-75
2021/12/09 07:27:31;;;;;;;19.92;9.90;;;5.30;75.00;;;;;;5055613;28;20025;-74
2021/12/09 07:29:56;;;;;;;11.18;6.05;;;5.30;74.90;;;;;;5056659;28;20126;-74
2021/12/09 07:32:22;;;;;;;10.80;5.70;;;5.30;74.90;;;;;;5073813;28;20118;-74
2021/12/09 07:34:48;;;;;;;11.27;5.93;;;5.30;74.70;;;;;;5074627;28;20055;-74
2021/12/09 07:37:13;;;;;;;7.68;4.07;;;5.30;74.70;;;;;;5072955;28;20071;-74
2021/12/09 07:39:39;;;;;;;7.93;4.45;;;5.40;74.60;;;;;;5067370;28;20081;-74
2021/12/09 07:42:05;;;;;;;11.00;4.40;;;5.40;74.70;;;;;;5074291;28;20037;-77
2021/12/09 07:44:32;;;;;;;6.95;3.42;;;5.40;74.80;;;;;;5088140;28;20070;-78
2021/12/09 07:46:58;;;;;;;10.27;3.88;;;5.40;74.80;;;;;;5074075;28;20025;-77
2021/12/09 07:49:25;;;;;;;7.00;3.58;;;5.50;74.90;;;;;;5055088;28;20024;-78
2021/12/09 07:51:51;;;;;;;7.00;3.30;;;5.50;75.00;;;;;;5073528;28;20060;-77
2021/12/09 07:54:18;;;;;;;10.93;4.78;;;5.50;75.00;;;;;;5072062;28;20095;-78
2021/12/09 07:56:45;;;;;;;8.20;4.20;;;5.50;74.80;;;;;;5069061;28;20029;-77
2021/12/09 07:59:11;;;;;;;9.98;4.00;;;5.60;74.70;;;;;;5062032;28;20065;-77
2021/12/09 08:01:39;;;;;;;10.65;4.32;;;5.60;74.70;;;;;;5071036;28;20020;-77
2021/12/09 08:04:05;;;;;;;9.70;3.97;;;5.70;74.70;;;;;;5070664;28;20024;-77
2021/12/09 08:06:31;;;;;;;11.88;4.15;;;5.70;74.70;;;;;;5072040;28;20421;-77
2021/12/09 08:08:58;;;;;;;12.18;4.15;;;5.80;74.70;;;;;;5074156;28;20059;-78
2021/12/09 08:11:23;;;;;;;12.32;4.60;;;5.80;74.70;;;;;;5052936;28;20039;-77
2021/12/09 08:13:49;;;;;;;9.15;4.38;;;5.90;74.60;;;;;;5069595;28;20033;-77
2021/12/09 08:16:16;;;;;;;10.07;4.80;;;5.90;74.40;;;;;;5065713;28;20029;-77
2021/12/09 08:18:56;;;;;;;14.82;7.00;;;5.90;74.40;;;;;;5070527;28;20038;-77
2021/12/09 08:21:26;;;;;;;13.07;6.30;;;6.00;74.30;;;;;;5078148;28;20032;-76
2021/12/09 08:23:53;;;;;;;14.70;5.05;;;6.00;74.20;;;;;;5072829;28;20025;-76
2021/12/09 08:26:20;;;;;;;10.43;3.72;;;6.10;74.20;;;;;;5071562;28;20082;-76
2021/12/09 08:28:45;;;;;;;5.60;2.85;;;6.10;74.10;;;;;;5073603;28;20052;-76
2021/12/09 08:31:11;;;;;;;9.27;3.80;;;6.20;73.90;;;;;;5066784;28;20500;-76
2021/12/09 08:33:37;;;;;;;8.98;3.85;;;6.20;73.50;;;;;;5063524;28;20429;-75
2021/12/09 08:36:03;;;;;;;6.38;3.15;;;6.20;73.50;;;;;;5070180;28;20024;-75
2021/12/09 08:38:29;;;;;;;11.07;3.75;;;6.20;73.50;;;;;;5072107;28;20032;-75
2021/12/09 08:40:55;;;;;;;14.82;3.50;;;6.30;73.50;;;;;;5075646;28;20035;-75
2021/12/09 08:43:22;;;;;;;7.28;2.92;;;6.30;73.30;;;;;;5072933;28;20086;-75
2021/12/09 08:45:53;;;;;;;10.60;4.30;;;6.40;73.10;;;;;;5072135;28;20511;-75
2021/12/09 08:48:19;;;;;;;9.82;3.70;;;6.40;73.10;;;;;;5059282;28;20036;-74
2021/12/09 08:50:44;;;;;;;41.22;18.48;;;6.50;73.10;;;;;;5069325;28;20036;-74
2021/12/09 08:53:16;;;;;;;13.38;6.90;;;6.50;72.80;;;;;;5076413;28;20420;-74
2021/12/09 08:55:42;;;;;;;11.88;5.00;;;6.60;72.70;;;;;;5070662;28;20016;-74
2021/12/09 08:58:15;;;;;;;9.45;6.15;;;6.60;72.30;;;;;;5072985;28;20041;-74
2021/12/09 09:00:52;;;;;;;10.02;3.88;;;6.60;72.40;;;;;;5035281;28;20086;-74
2021/12/09 09:03:18;;;;;;;11.23;4.30;;;6.70;72.50;;;;;;5068188;28;20012;-74
2021/12/09 09:05:44;;;;;;;12.30;4.90;;;6.70;72.20;;;;;;5065493;28;20036;-73
2021/12/09 09:08:09;;;;;;;10.18;4.30;;;6.70;72.00;;;;;;5058546;28;20103;-73
2021/12/09 09:10:39;;;;;;;11.63;4.75;;;6.70;72.00;;;;;;5069945;28;20032;-74
2021/12/09 09:13:04;;;;;;;11.27;4.75;;;6.70;72.00;;;;;;5071900;28;20021;-74
2021/12/09 09:15:31;;;;;;;9.50;4.90;;;6.70;71.90;;;;;;5069507;28;20103;-74
2021/12/09 09:17:59;;;;;;;9.80;4.40;;;6.80;71.70;;;;;;5058023;28;20024;-74
2021/12/09 09:20:27;;;;;;;11.13;5.47;;;6.80;71.60;;;;;;5051250;28;20103;-72
2021/12/09 09:22:53;;;;;;;9.10;4.65;;;6.80;71.80;;;;;;5050757;28;20905;-73
2021/12/09 09:25:28;;;;;;;9.07;4.60;;;6.80;71.80;;;;;;5051452;28;20016;-73
2021/12/09 09:27:54;;;;;;;9.43;4.75;;;6.90;71.90;;;;;;5065349;28;20568;-76
2021/12/09 09:30:20;;;;;;;8.95;4.60;;;6.90;72.10;;;;;;5052906;28;20115;-76
2021/12/09 09:32:48;;;;;;;9.77;3.72;;;7.00;72.30;;;;;;5063482;28;20113;-76
2021/12/09 09:35:14;;;;;;;10.10;4.30;;;7.20;72.30;;;;;;5069897;28;20035;-75
2021/12/09 09:37:40;;;;;;;11.48;4.82;;;7.30;72.10;;;;;;5066053;28;20064;-77
2021/12/09 09:40:16;;;;;;;14.00;4.40;;;7.40;72.00;;;;;;5065072;28;21908;-77
2021/12/09 09:45:14;;;;;;;14.45;6.60;;;7.80;71.60;;;;;;5064508;28;20029;-78
2021/12/09 09:47:40;;;;;;;27.15;13.25;;;7.90;71.30;;;;;;5054531;28;20396;-79
2021/12/09 09:50:08;;;;;;;17.15;9.00;;;8.10;71.40;;;;;;5058409;28;20150;-74
2021/12/09 09:52:34;;;;;;;10.38;6.50;;;8.20;70.60;;;;;;5069073;28;20032;-74
2021/12/09 09:55:01;;;;;;;16.42;6.63;;;8.30;69.80;;;;;;5053422;28;20020;-74
2021/12/09 09:57:27;;;;;;;12.60;6.03;;;8.30;69.50;;;;;;5051902;28;20052;-74
2021/12/09 09:59:53;;;;;;;8.98;4.35;;;8.40;69.40;;;;;;5055362;28;20032;-74
2021/12/09 10:02:19;;;;;;;11.57;4.22;;;8.40;69.30;;;;;;5056049;28;20056;-78
2021/12/09 10:04:48;;;;;;;11.68;5.93;;;8.40;68.90;;;;;;5061798;28;20638;-77
2021/12/09 10:07:17;;;;;;;9.93;4.15;;;8.50;69.20;;;;;;5061555;28;20028;-75
2021/12/09 10:09:44;;;;;;;9.48;3.67;;;8.60;69.10;;;;;;5069999;28;20060;-76
2021/12/09 10:12:10;;;;;;;6.00;3.25;;;8.60;69.00;;;;;;5067465;28;20037;-75
2021/12/09 10:14:36;;;;;;;7.57;3.30;;;8.70;69.00;;;;;;5058625;28;20021;-75
2021/12/09 10:17:11;;;;;;;6.32;3.10;;;8.70;68.80;;;;;;5051492;28;20508;-75
2021/12/09 10:19:53;;;;;;;4.57;2.35;;;8.80;68.50;;;;;;5060860;28;20381;-74
2021/12/09 10:22:22;;;;;;;5.90;2.70;;;8.80;67.70;;;;;;5057307;28;20068;-75
2021/12/09 10:24:51;;;;;;;8.30;3.58;;;8.80;68.10;;;;;;5062673;28;20491;-75
2021/12/09 10:27:31;;;;;;;8.98;3.08;;;8.90;68.20;;;;;;5066100;28;20511;-75
2021/12/09 10:30:21;;;;;;;7.88;2.60;;;8.90;67.80;;;;;;5053719;28;20028;-75
2021/12/09 10:32:49;;;;;;;7.10;2.60;;;9.00;68.20;;;;;;5068162;28;20071;-74
2021/12/09 10:35:19;;;;;;;8.38;4.50;;;9.10;68.20;;;;;;5050724;28;20036;-75
2021/12/09 10:37:50;;;;;;;8.60;3.13;;;9.10;67.80;;;;;;5047989;28;20025;-74
2021/12/09 10:40:20;;;;;;;7.05;2.58;;;9.20;67.20;;;;;;5048618;28;20020;-74
2021/12/09 10:42:52;;;;;;;11.27;6.63;;;9.20;67.70;;;;;;5068404;28;20017;-74
2021/12/09 10:45:29;;;;;;;12.32;3.67;;;9.30;66.90;;;;;;5052134;28;20461;-74
2021/12/09 10:51:13;;;;;;;7.07;2.28;;;9.40;66.50;;;;;;5073161;28;20104;-74
2021/12/09 10:53:46;;;;;;;7.28;2.92;;;9.50;67.30;;;;;;5074828;28;20391;-74
2021/12/09 10:56:13;;;;;;;7.72;3.00;;;9.50;66.40;;;;;;5065130;28;20036;-74
2021/12/09 10:58:41;;;;;;;8.25;2.88;;;9.50;66.00;;;;;;5088781;28;20423;-74
2021/12/09 11:01:09;;;;;;;5.20;2.22;;;9.40;66.10;;;;;;5063447;28;20546;-74
2021/12/09 11:03:40;;;;;;;5.90;2.70;;;9.30;65.40;;;;;;5074348;28;20032;-75
2021/12/09 11:06:12;;;;;;;6.60;2.40;;;9.30;65.90;;;;;;5075099;28;20024;-74
2021/12/09 11:08:45;;;;;;;7.70;2.45;;;9.20;66.10;;;;;;5072514;28;20035;-74
2021/12/09 11:11:30;;;;;;;5.45;2.42;;;9.20;66.10;;;;;;5075220;28;20032;-74
2021/12/09 11:14:04;;;;;;;5.10;2.35;;;9.10;66.00;;;;;;5073341;28;20017;-74
2021/12/09 11:16:32;;;;;;;5.45;2.42;;;9.00;65.70;;;;;;5074388;28;20051;-74
2021/12/09 11:19:11;;;;;;;5.45;2.30;;;9.00;65.90;;;;;;5064218;28;20100;-73
2021/12/09 11:21:43;;;;;;;8.60;2.70;;;8.90;65.20;;;;;;5073850;28;20070;-74
2021/12/09 11:24:15;;;;;;;10.45;2.70;;;8.80;65.70;;;;;;5080236;28;20050;-74
2021/12/09 11:26:56;;;;;;;5.20;2.53;;;8.70;64.80;;;;;;5083793;28;20024;-74
2021/12/09 11:29:28;;;;;;;7.38;2.53;;;8.50;64.90;;;;;;5068593;28;20017;-74
2021/12/09 11:32:11;;;;;;;5.25;2.50;;;8.40;65.70;;;;;;5064488;28;20150;-75
2021/12/09 11:34:51;;;;;;;5.85;2.40;;;8.20;65.90;;;;;;5074779;28;20499;-74
2021/12/09 11:40:35;;;;;;;5.40;2.55;;;8.10;67.00;;;;;;5074546;28;20029;-74
2021/12/09 11:43:03;;;;;;;7.57;2.80;;;8.00;67.20;;;;;;5045509;28;20036;-74
2021/12/09 11:45:44;;;;;;;5.65;2.58;;;8.10;67.90;;;;;;5069710;28;20104;-73
2021/12/09 11:48:12;;;;;;;5.03;2.38;;;8.10;67.80;;;;;;5049929;28;20025;-74
2021/12/09 11:50:41;;;;;;;3.53;2.10;;;8.20;67.60;;;;;;5067152;28;20031;-74
2021/12/09 11:53:10;;;;;;;6.40;2.42;;;8.20;67.60;;;;;;5071753;28;20033;-73
2021/12/09 11:55:51;;;;;;;6.93;2.83;;;8.30;67.50;;;;;;5060105;28;20167;-73
2021/12/09 11:58:28;;;;;;;4.07;2.30;;;8.30;67.70;;;;;;5070510;28;20047;-74
2021/12/09 12:13:09;;;;;;;6.53;2.65;;;8.80;67.00;;;;;;5071049;28;20508;-73
2021/12/09 12:26:59;;;;;;;5.20;2.17;;;8.80;66.40;;;;;;5069683;28;20024;-73
2021/12/09 12:38:19;;;;;;;6.20;2.50;;;8.50;65.70;;;;;;5067744;28;20093;-73
2021/12/09 12:40:46;;;;;;;5.15;2.47;;;8.40;66.30;;;;;;5067592;28;20480;-72
2021/12/09 12:43:39;;;;;;;7.65;2.58;;;8.30;66.20;;;;;;5047124;28;20029;-72
2021/12/09 12:46:37;;;;;;;6.63;2.22;;;8.20;66.20;;;;;;5065353;28;20034;-73
2021/12/09 12:52:14;;;;;;;4.25;2.20;;;8.10;66.90;;;;;;5067944;28;20051;-72
2021/12/09 12:57:17;;;;;;;7.80;3.30;;;8.00;67.50;;;;;;5071645;28;20049;-74
2021/12/09 12:59:58;;;;;;;7.90;3.13;;;8.00;67.70;;;;;;5070383;28;20411;-73
2021/12/09 13:05:03;;;;;;;6.53;2.50;;;8.10;67.90;;;;;;5069099;28;20078;-74
2021/12/09 13:10:46;;;;;;;6.13;2.13;;;8.20;67.30;;;;;;5070213;28;20040;-74
2021/12/09 13:16:36;;;;;;;5.45;2.78;;;8.20;67.00;;;;;;5083817;28;20063;-74
2021/12/09 13:19:31;;;;;;;6.18;2.70;;;8.20;67.00;;;;;;5071142;28;20055;-75
2021/12/09 13:22:17;;;;;;;5.18;1.98;;;8.30;67.40;;;;;;5072734;28;20024;-74
2021/12/09 13:24:55;;;;;;;7.53;2.30;;;8.20;67.20;;;;;;5070911;28;20492;-74
2021/12/09 13:30:16;;;;;;;7.30;2.50;;;8.20;67.20;;;;;;5075521;28;20095;-73
2021/12/09 13:36:03;;;;;;;7.70;2.58;;;8.30;67.20;;;;;;5069104;28;20388;-73
2021/12/09 13:47:32;;;;;;;7.55;3.20;;;8.20;67.30;;;;;;5074525;28;20129;-74
2021/12/09 13:55:14;;;;;;;9.13;2.78;;;8.10;67.10;;;;;;5068873;28;20012;-73
2021/12/09 13:57:40;;;;;;;;;;;8.00;67.30;;;;;;5062868;28;20048;-74
2021/12/09 14:00:24;;;;;;;6.20;2.60;;;8.00;67.10;;;;;;5067984;28;19916;-74
2021/12/09 14:02:51;;;;;;;5.85;2.45;;;8.00;67.40;;;;;;5070354;28;20032;-73
2021/12/09 14:05:18;;;;;;;4.78;2.35;;;7.90;67.60;;;;;;5052049;28;20032;-73
2021/12/09 14:07:56;;;;;;;5.50;2.30;;;7.90;67.60;;;;;;5069796;28;20034;-74
2021/12/09 14:10:26;;;;;;;5.57;2.55;;;7.90;67.60;;;;;;5052324;28;20107;-73
2021/12/09 14:12:59;;;;;;;9.32;3.40;;;7.80;67.40;;;;;;5064310;28;20037;-75
2021/12/09 14:15:40;;;;;;;6.95;3.00;;;7.80;67.60;;;;;;5069594;28;20063;-73
2021/12/09 14:18:14;;;;;;;10.75;3.97;;;7.70;67.60;;;;;;5069767;28;20028;-73